Time;durP1;ratioP1;P1;durP2;ratioP2;P2;SDS_P1;SDS_P2;PMS_P1;PMS_P2;Temp;Humidity;BMP_temperature;BMP_pressure;BME280_temperature;BME280_humidity;BME280_pressure;Samples;Min_cycle;Max_cycle;Signal;HPM_P1;HPM_P2
2021/07/20 00:02:12;;;;;;;7.63;6.93;;;22.50;99.90;;;;;;5019669;28;20042;-85
2021/07/20 00:04:40;;;;;;;11.32;7.43;;;22.50;99.90;;;;;;5015242;28;20042;-84
2021/07/20 00:07:07;;;;;;;7.70;7.00;;;22.50;99.90;;;;;;5013552;28;20061;-85
2021/07/20 00:09:34;;;;;;;9.02;7.20;;;22.40;99.90;;;;;;5028855;28;20379;-84
2021/07/20 00:12:01;;;;;;;10.35;7.32;;;22.40;99.90;;;;;;5017489;28;20049;-85
2021/07/20 00:14:28;;;;;;;8.98;7.32;;;22.40;99.90;;;;;;5013472;28;20045;-85
2021/07/20 00:16:55;;;;;;;8.98;7.35;;;22.40;99.90;;;;;;5029668;28;20057;-85
2021/07/20 00:19:22;;;;;;;8.60;7.05;;;22.30;99.90;;;;;;5002517;28;20474;-85
2021/07/20 00:21:51;;;;;;;13.23;7.50;;;22.30;99.90;;;;;;5013826;28;20398;-85
2021/07/20 00:24:17;;;;;;;9.60;7.13;;;22.30;99.90;;;;;;5019852;28;20038;-85
2021/07/20 00:26:46;;;;;;;9.00;7.00;;;22.30;99.90;;;;;;5017548;28;20049;-85
2021/07/20 00:29:14;;;;;;;10.07;6.85;;;22.20;99.90;;;;;;5021229;28;20052;-85
2021/07/20 00:31:41;;;;;;;9.27;7.07;;;22.20;99.90;;;;;;5013256;28;20053;-85
2021/07/20 00:34:08;;;;;;;9.60;7.25;;;22.20;99.90;;;;;;5032063;28;20185;-85
2021/07/20 00:36:35;;;;;;;8.23;7.43;;;22.20;99.90;;;;;;5017842;28;20059;-85
2021/07/20 00:39:04;;;;;;;8.60;7.40;;;22.10;99.90;;;;;;5027211;28;20391;-84
2021/07/20 00:41:31;;;;;;;14.50;7.75;;;22.10;99.90;;;;;;5010553;28;20110;-85
2021/07/20 00:43:58;;;;;;;10.38;7.38;;;22.00;99.90;;;;;;5012264;28;20056;-85
2021/07/20 00:46:25;;;;;;;7.93;7.18;;;22.00;99.90;;;;;;5012927;28;20072;-85
2021/07/20 00:48:52;;;;;;;12.68;7.18;;;22.00;99.90;;;;;;5018389;28;20060;-84
2021/07/20 00:51:19;;;;;;;10.32;7.50;;;22.00;99.90;;;;;;5036525;28;20269;-85
2021/07/20 01:08:56;;;;;;;11.82;7.70;;;22.00;99.90;;;;;;5036627;28;20068;-85
2021/07/20 01:11:26;;;;;;;9.57;8.20;;;21.90;99.90;;;;;;5018243;28;20046;-85
2021/07/20 01:13:54;;;;;;;12.75;7.80;;;21.90;99.90;;;;;;5016044;28;20049;-85
2021/07/20 01:16:23;;;;;;;10.93;7.82;;;21.90;99.90;;;;;;5019754;28;20045;-85
2021/07/20 01:57:53;;;;;;;9.90;7.50;;;21.50;99.90;;;;;;5014421;28;20112;-85
2021/07/20 02:00:22;;;;;;;8.93;7.20;;;21.50;99.90;;;;;;5039717;28;20103;-85
2021/07/20 02:08:29;;;;;;;11.15;8.20;;;21.40;99.90;;;;;;5035204;28;20044;-85
2021/07/20 02:11:04;;;;;;;9.73;7.00;;;21.40;99.90;;;;;;5023008;28;20908;-85
2021/07/20 02:13:41;;;;;;;9.40;7.22;;;21.40;99.90;;;;;;5014629;28;20049;-85
2021/07/20 02:16:11;;;;;;;7.85;7.05;;;21.40;99.90;;;;;;5044783;28;20073;-85
2021/07/20 02:18:49;;;;;;;8.77;7.72;;;21.40;99.90;;;;;;5032321;28;20080;-85
2021/07/20 02:21:19;;;;;;;9.43;7.70;;;21.40;99.90;;;;;;5017260;28;20049;-85
2021/07/20 02:23:51;;;;;;;9.70;7.57;;;21.40;99.90;;;;;;5017605;28;20479;-85
2021/07/20 02:26:23;;;;;;;9.60;7.07;;;21.40;99.90;;;;;;5026185;28;20044;-85
2021/07/20 02:28:52;;;;;;;9.38;7.50;;;21.40;99.90;;;;;;5042576;28;20073;-85
2021/07/20 02:31:21;;;;;;;10.75;7.50;;;21.40;99.90;;;;;;5009908;28;20050;-85
2021/07/20 02:33:49;;;;;;;10.05;7.38;;;21.40;99.90;;;;;;5024263;28;20121;-84
2021/07/20 02:36:16;;;;;;;8.10;7.40;;;21.30;99.90;;;;;;5032169;28;20068;-85
2021/07/20 02:38:44;;;;;;;9.65;7.15;;;21.30;99.90;;;;;;5014951;28;20046;-85
2021/07/20 02:41:12;;;;;;;9.10;7.03;;;21.30;99.90;;;;;;5013277;28;20060;-85
2021/07/20 02:43:39;;;;;;;9.17;7.43;;;21.30;99.90;;;;;;5006406;28;20049;-85
2021/07/20 02:46:08;;;;;;;8.40;7.07;;;21.30;99.90;;;;;;5038118;28;20048;-85
2021/07/20 02:48:41;;;;;;;9.50;7.20;;;21.30;99.90;;;;;;5040453;28;20299;-85
2021/07/20 02:51:10;;;;;;;8.52;7.63;;;21.30;99.90;;;;;;5015333;28;20045;-85
2021/07/20 02:53:39;;;;;;;9.57;7.47;;;21.30;99.90;;;;;;5034587;28;20041;-85
2021/07/20 02:56:08;;;;;;;8.05;7.22;;;21.30;99.90;;;;;;5020206;28;20112;-84
2021/07/20 02:58:37;;;;;;;8.32;7.47;;;21.30;99.90;;;;;;5008155;28;20038;-85
2021/07/20 03:01:07;;;;;;;8.07;7.28;;;21.30;99.90;;;;;;5002960;28;20042;-85
2021/07/20 03:03:34;;;;;;;8.88;7.43;;;21.20;99.90;;;;;;4991446;28;20050;-85
2021/07/20 03:06:04;;;;;;;9.95;7.22;;;21.20;99.90;;;;;;5008474;28;20050;-85
2021/07/20 03:08:34;;;;;;;9.63;7.40;;;21.20;99.90;;;;;;4995422;28;20388;-85
2021/07/20 03:11:04;;;;;;;10.13;7.65;;;21.20;99.90;;;;;;5000041;28;20492;-85
2021/07/20 03:13:34;;;;;;;10.82;6.97;;;21.20;99.90;;;;;;5008064;28;20124;-85
2021/07/20 03:16:04;;;;;;;8.50;7.05;;;21.10;99.90;;;;;;5008520;28;20157;-85
2021/07/20 03:18:34;;;;;;;8.50;6.93;;;21.10;99.90;;;;;;4999957;28;20041;-84
2021/07/20 03:21:02;;;;;;;9.20;7.30;;;21.10;99.90;;;;;;4992095;28;20053;-85
2021/07/20 03:23:31;;;;;;;8.03;7.23;;;21.10;99.90;;;;;;4988349;28;20046;-85
2021/07/20 03:26:00;;;;;;;8.68;7.03;;;21.10;99.90;;;;;;4990459;28;20296;-85
2021/07/20 03:28:28;;;;;;;8.70;7.28;;;21.00;99.90;;;;;;5008950;28;20524;-85
2021/07/20 03:30:55;;;;;;;;;;;21.00;99.90;;;;;;4989325;28;20061;-85
2021/07/20 03:33:25;;;;;;;8.95;6.88;;;21.00;99.90;;;;;;4989645;28;19921;-85
2021/07/20 03:35:53;;;;;;;9.82;6.78;;;21.00;99.90;;;;;;4986693;28;20491;-85
2021/07/20 03:38:21;;;;;;;9.97;7.50;;;21.00;99.90;;;;;;4994695;28;20389;-85
2021/07/20 03:40:51;;;;;;;13.57;7.80;;;20.90;99.90;;;;;;4981344;28;20293;-84
2021/07/20 03:43:22;;;;;;;8.70;7.43;;;20.90;99.90;;;;;;4991156;28;20038;-85
2021/07/20 03:45:50;;;;;;;9.30;7.20;;;20.90;99.90;;;;;;4990368;28;20050;-85
2021/07/20 03:48:17;;;;;;;8.23;7.18;;;20.90;99.90;;;;;;4991558;28;20061;-84
2021/07/20 03:50:46;;;;;;;9.32;7.10;;;20.80;99.90;;;;;;4995156;28;20099;-85
2021/07/20 03:53:14;;;;;;;10.73;7.68;;;20.80;99.90;;;;;;4990930;28;20045;-85
2021/07/20 03:55:45;;;;;;;10.88;7.68;;;20.80;99.90;;;;;;4992732;28;20054;-85
2021/07/20 03:58:14;;;;;;;10.27;7.80;;;20.80;99.90;;;;;;4999564;28;20038;-85
2021/07/20 04:00:42;;;;;;;9.77;7.25;;;20.80;99.90;;;;;;5015392;28;20042;-85
2021/07/20 04:03:23;;;;;;;8.60;7.32;;;20.80;99.90;;;;;;5030775;28;20044;-85
2021/07/20 04:06:02;;;;;;;8.23;7.00;;;20.80;99.90;;;;;;5013991;28;20450;-85
2021/07/20 04:08:31;;;;;;;8.25;7.00;;;20.70;99.90;;;;;;5032503;28;20057;-85
2021/07/20 04:10:59;;;;;;;9.05;7.43;;;20.70;99.90;;;;;;5014561;28;20057;-84
2021/07/20 04:13:27;;;;;;;11.13;8.00;;;20.70;99.90;;;;;;5032202;28;20072;-85
2021/07/20 04:16:04;;;;;;;9.85;7.15;;;20.70;99.90;;;;;;5014931;28;20049;-85
2021/07/20 04:18:34;;;;;;;11.68;6.97;;;20.60;99.90;;;;;;5008656;28;20111;-85
2021/07/20 04:21:05;;;;;;;8.25;7.47;;;20.70;99.90;;;;;;5012346;28;20115;-85
2021/07/20 04:23:34;;;;;;;8.20;7.38;;;20.60;99.90;;;;;;5013303;28;20041;-85
2021/07/20 04:26:01;;;;;;;;;;;20.60;99.90;;;;;;5012171;28;20482;-86
2021/07/20 04:28:28;;;;;;;10.52;7.35;;;20.60;99.90;;;;;;5013610;28;19928;-85
2021/07/20 04:30:58;;;;;;;11.10;7.15;;;20.60;99.90;;;;;;5013537;28;20054;-85
2021/07/20 04:33:30;;;;;;;10.30;7.53;;;20.60;99.90;;;;;;5031384;28;20042;-84
2021/07/20 04:35:59;;;;;;;8.77;7.25;;;20.50;99.90;;;;;;5013868;28;20053;-85
2021/07/20 04:38:30;;;;;;;10.35;7.68;;;20.50;99.90;;;;;;5013217;28;20498;-85
2021/07/20 04:40:58;;;;;;;8.80;7.82;;;20.50;99.90;;;;;;5009818;28;20049;-85
2021/07/20 04:43:25;;;;;;;8.40;7.60;;;20.50;99.90;;;;;;5008077;28;20052;-85
2021/07/20 04:45:56;;;;;;;10.40;7.55;;;20.50;99.90;;;;;;5014700;28;20048;-85
2021/07/20 04:48:24;;;;;;;8.45;7.15;;;20.50;99.90;;;;;;5015203;28;20538;-85
2021/07/20 04:50:53;;;;;;;11.23;7.90;;;20.50;99.90;;;;;;5015561;28;20057;-85
2021/07/20 04:53:20;;;;;;;11.95;7.63;;;20.50;99.90;;;;;;5019780;28;20042;-85
2021/07/20 04:55:50;;;;;;;9.73;7.35;;;20.50;99.90;;;;;;5013195;28;20045;-85
2021/07/20 04:58:18;;;;;;;9.10;6.97;;;20.50;99.90;;;;;;5014078;28;20045;-85
2021/07/20 05:00:49;;;;;;;8.67;7.50;;;20.50;99.90;;;;;;5012589;28;20033;-84
2021/07/20 05:03:19;;;;;;;7.85;6.93;;;20.50;99.90;;;;;;5022126;28;20084;-85
2021/07/20 05:05:47;;;;;;;9.73;7.15;;;20.50;99.90;;;;;;5014719;28;20107;-84
2021/07/20 05:08:17;;;;;;;8.45;7.35;;;20.50;99.90;;;;;;5012431;28;20310;-85
2021/07/20 05:10:48;;;;;;;9.43;6.97;;;20.50;99.90;;;;;;5017289;28;20506;-85
2021/07/20 05:13:17;;;;;;;8.75;7.30;;;20.50;99.90;;;;;;5030675;28;20047;-86
2021/07/20 05:15:51;;;;;;;8.50;7.30;;;20.60;99.90;;;;;;5031772;28;20120;-85
2021/07/20 05:18:19;;;;;;;14.10;7.13;;;20.60;99.90;;;;;;5017604;28;20046;-85
2021/07/20 05:20:49;;;;;;;9.90;6.40;;;20.60;99.90;;;;;;5006042;28;20495;-86
2021/07/20 05:23:18;;;;;;;8.75;6.88;;;20.60;99.90;;;;;;5033668;28;20387;-86
2021/07/20 05:25:48;;;;;;;12.10;6.93;;;20.60;99.90;;;;;;5023173;28;20041;-85
2021/07/20 05:28:17;;;;;;;7.50;6.80;;;20.70;99.90;;;;;;5025237;28;20501;-86
2021/07/20 05:30:45;;;;;;;9.00;6.78;;;20.70;99.90;;;;;;5016114;28;20041;-86
2021/07/20 05:33:12;;;;;;;7.63;6.82;;;20.70;99.90;;;;;;5013015;28;20049;-86
2021/07/20 05:35:39;;;;;;;9.75;7.32;;;20.80;99.90;;;;;;5018209;28;20049;-86
2021/07/20 05:38:08;;;;;;;10.68;7.13;;;20.80;99.90;;;;;;5018697;28;20463;-86
2021/07/20 05:40:36;;;;;;;9.88;6.93;;;20.90;99.90;;;;;;5012924;28;20037;-86
2021/07/20 05:43:03;;;;;;;7.20;6.60;;;21.00;99.90;;;;;;5022031;28;20411;-86
2021/07/20 05:45:31;;;;;;;9.02;6.95;;;21.00;99.90;;;;;;5017139;28;20052;-86
2021/07/20 05:47:59;;;;;;;7.43;6.63;;;21.10;99.90;;;;;;5018903;28;20116;-86
2021/07/20 05:50:26;;;;;;;8.57;6.82;;;21.20;99.90;;;;;;5011853;28;20038;-86
2021/07/20 05:52:56;;;;;;;8.50;6.70;;;21.20;99.90;;;;;;5028246;28;20399;-86
2021/07/20 05:55:24;;;;;;;10.25;6.97;;;21.40;99.90;;;;;;5012671;28;20092;-86
2021/07/20 05:57:52;;;;;;;11.30;6.93;;;21.40;99.90;;;;;;5015179;28;20109;-86
2021/07/20 06:00:21;;;;;;;;;;;21.50;99.90;;;;;;5011907;28;20045;-86
2021/07/20 06:02:48;;;;;;;;;;;21.60;99.90;;;;;;5008055;28;19922;-86
2021/07/20 06:05:17;;;;;;;11.45;6.18;;;21.60;99.90;;;;;;4992749;28;19922;-86
2021/07/20 06:07:45;;;;;;;9.52;6.90;;;21.70;99.90;;;;;;4990021;28;20076;-85
2021/07/20 06:10:17;;;;;;;8.38;6.53;;;21.80;99.90;;;;;;4990076;28;20061;-86
2021/07/20 06:12:45;;;;;;;8.05;7.22;;;21.90;99.90;;;;;;5004341;28;20052;-85
2021/07/20 06:15:13;;;;;;;8.77;6.90;;;22.00;99.90;;;;;;4991886;28;20061;-86
2021/07/20 06:17:40;;;;;;;8.77;6.47;;;22.10;99.90;;;;;;4985828;28;20090;-85
2021/07/20 06:20:09;;;;;;;9.23;7.00;;;22.20;99.90;;;;;;4989512;28;20045;-85
2021/07/20 06:22:42;;;;;;;10.82;6.78;;;22.20;99.90;;;;;;5005095;28;20046;-86
2021/07/20 06:25:13;;;;;;;11.52;6.95;;;22.40;99.90;;;;;;4992389;28;20372;-86
2021/07/20 06:27:42;;;;;;;10.45;6.68;;;22.40;99.90;;;;;;4995120;28;20427;-86
2021/07/20 06:30:10;;;;;;;8.27;6.18;;;22.50;99.90;;;;;;5007438;28;20046;-86
2021/07/20 06:32:37;;;;;;;11.40;6.50;;;22.60;99.90;;;;;;4988132;28;20513;-86
2021/07/20 06:35:05;;;;;;;9.15;6.57;;;22.70;99.90;;;;;;5002783;28;20369;-85
2021/07/20 06:37:32;;;;;;;9.13;6.43;;;22.80;99.90;;;;;;5010997;28;20045;-86
2021/07/20 06:39:59;;;;;;;9.02;6.60;;;22.90;99.90;;;;;;5002149;28;20042;-86
2021/07/20 06:42:27;;;;;;;10.30;6.25;;;23.00;99.90;;;;;;4992876;28;20376;-86
2021/07/20 06:44:54;;;;;;;8.27;6.47;;;23.10;99.90;;;;;;5010302;28;20042;-85
2021/07/20 06:47:22;;;;;;;8.63;6.72;;;23.20;99.90;;;;;;4992771;28;20092;-86
2021/07/20 06:49:50;;;;;;;10.07;6.78;;;23.30;99.90;;;;;;4993232;28;20049;-85
2021/07/20 06:52:18;;;;;;;9.75;6.50;;;23.30;99.90;;;;;;4990598;28;20060;-86
2021/07/20 06:54:45;;;;;;;7.43;6.10;;;23.50;99.90;;;;;;4993232;28;20100;-86
2021/07/20 06:57:17;;;;;;;10.77;6.30;;;23.50;99.90;;;;;;4993005;28;20054;-86
2021/07/20 06:59:46;;;;;;;10.15;6.28;;;23.70;99.90;;;;;;4993396;28;20050;-85
2021/07/20 07:02:18;;;;;;;11.02;6.38;;;23.80;99.90;;;;;;5004343;28;20127;-86
2021/07/20 07:05:25;;;;;;;8.63;6.28;;;23.90;99.90;;;;;;4991157;28;20484;-86
2021/07/20 07:07:53;;;;;;;8.57;5.93;;;24.10;99.90;;;;;;4895222;29;20048;-86
2021/07/20 07:10:21;;;;;;;7.90;6.17;;;24.20;99.90;;;;;;4913581;29;20048;-85
2021/07/20 07:12:50;;;;;;;12.20;6.38;;;24.30;99.90;;;;;;4899152;29;20048;-86
2021/07/20 07:15:18;;;;;;;10.23;6.03;;;24.40;99.90;;;;;;4892492;29;20123;-86
2021/07/20 07:17:47;;;;;;;10.75;5.63;;;24.60;99.90;;;;;;4893131;29;20046;-86
2021/07/20 07:20:18;;;;;;;7.95;5.90;;;24.70;99.90;;;;;;4892534;29;20060;-86
2021/07/20 07:22:47;;;;;;;6.18;5.40;;;24.80;99.90;;;;;;4898239;29;20048;-86
2021/07/20 07:25:16;;;;;;;;;;;24.90;99.90;;;;;;4930987;29;20044;-86
2021/07/20 07:27:45;;;;;;;8.57;5.53;;;25.00;99.90;;;;;;4913636;29;19927;-86
2021/07/20 07:30:12;;;;;;;7.88;5.38;;;25.20;99.90;;;;;;4892697;29;20056;-86
2021/07/20 07:32:39;;;;;;;9.27;5.20;;;25.30;99.90;;;;;;4919294;29;20398;-85
2021/07/20 07:35:09;;;;;;;6.95;5.00;;;25.40;99.90;;;;;;4899929;29;20281;-86
2021/07/20 07:37:37;;;;;;;6.65;5.15;;;25.50;99.90;;;;;;4902415;28;20049;-86
2021/07/20 07:40:07;;;;;;;5.95;4.53;;;25.60;99.90;;;;;;4984429;28;20044;-86
2021/07/20 07:42:39;;;;;;;7.50;4.90;;;25.80;99.90;;;;;;5007738;28;21139;-86
2021/07/20 07:45:08;;;;;;;6.20;4.63;;;25.90;99.90;;;;;;4992868;28;20049;-86
2021/07/20 07:47:38;;;;;;;7.15;4.55;;;26.00;99.90;;;;;;4995889;28;20053;-86
2021/07/20 07:50:06;;;;;;;10.43;4.82;;;26.10;99.90;;;;;;4994651;28;20126;-86
2021/07/20 07:52:34;;;;;;;;;;;26.20;99.90;;;;;;4998568;28;20038;-86
2021/07/20 07:55:01;;;;;;;8.75;4.60;;;26.30;99.90;;;;;;4996512;28;19928;-86
2021/07/20 07:57:28;;;;;;;9.68;4.70;;;26.50;99.90;;;;;;5015082;28;20364;-86
2021/07/20 07:59:57;;;;;;;6.65;4.50;;;26.50;99.90;;;;;;4994495;28;20049;-85
2021/07/20 08:02:30;;;;;;;8.57;4.40;;;26.70;99.90;;;;;;5009170;28;20395;-86
2021/07/20 08:05:00;;;;;;;10.00;4.15;;;26.80;99.90;;;;;;4997092;28;20058;-84
2021/07/20 08:07:28;;;;;;;7.63;4.00;;;27.00;99.90;;;;;;4995925;28;20049;-85
2021/07/20 08:09:57;;;;;;;6.68;4.40;;;27.10;99.90;;;;;;4996141;28;21332;-86
2021/07/20 08:12:26;;;;;;;6.10;4.35;;;27.20;99.90;;;;;;4992186;28;20672;-86
2021/07/20 08:14:54;;;;;;;7.38;4.28;;;27.30;99.70;;;;;;4995231;28;20058;-86
2021/07/20 08:17:23;;;;;;;7.15;4.25;;;27.40;99.60;;;;;;4993594;28;20104;-86
2021/07/20 08:19:52;;;;;;;8.80;4.03;;;27.50;99.50;;;;;;4993792;28;20398;-85
2021/07/20 08:22:22;;;;;;;5.72;4.25;;;27.60;99.00;;;;;;5006978;28;20128;-85
2021/07/20 08:25:05;;;;;;;5.85;3.80;;;27.70;98.90;;;;;;4998240;28;20129;-85
2021/07/20 08:27:50;;;;;;;7.13;3.97;;;27.80;98.60;;;;;;4991235;28;20468;-86
2021/07/20 08:30:18;;;;;;;5.88;4.00;;;27.90;98.20;;;;;;4994337;28;20400;-85
2021/07/20 08:32:55;;;;;;;9.07;4.10;;;28.00;98.10;;;;;;4994823;28;20053;-85
2021/07/20 08:35:27;;;;;;;6.25;3.95;;;28.20;98.00;;;;;;4994844;28;20479;-85
2021/07/20 08:38:06;;;;;;;6.35;4.22;;;28.20;97.60;;;;;;5011770;28;20528;-85
2021/07/20 08:40:53;;;;;;;7.80;3.67;;;28.30;97.40;;;;;;4993765;28;20042;-85
2021/07/20 08:43:39;;;;;;;6.43;3.80;;;28.40;96.70;;;;;;4980764;28;20046;-86
2021/07/20 08:46:10;;;;;;;5.38;3.80;;;28.40;96.40;;;;;;4978459;28;20038;-86
2021/07/20 08:48:49;;;;;;;6.28;3.58;;;28.50;96.50;;;;;;5025747;28;20045;-86
2021/07/20 08:51:33;;;;;;;5.78;3.40;;;28.60;96.00;;;;;;4963570;28;20043;-86
2021/07/20 08:54:09;;;;;;;6.32;3.92;;;28.60;96.10;;;;;;5003270;28;20100;-85
2021/07/20 08:56:42;;;;;;;5.05;3.70;;;28.70;95.80;;;;;;5002380;28;20038;-85
2021/07/20 08:59:19;;;;;;;5.25;3.67;;;28.80;95.70;;;;;;5008236;28;20095;-85
2021/07/20 09:02:09;;;;;;;6.65;3.72;;;28.80;95.40;;;;;;5017255;28;20113;-85
2021/07/20 09:04:41;;;;;;;6.63;3.88;;;28.90;95.20;;;;;;5031587;28;20083;-85
2021/07/20 09:07:14;;;;;;;7.68;3.67;;;29.00;94.90;;;;;;5014489;28;20042;-86
2021/07/20 09:09:47;;;;;;;8.07;3.72;;;29.10;94.90;;;;;;5034148;28;20067;-85
2021/07/20 09:12:25;;;;;;;5.75;3.80;;;29.20;94.90;;;;;;5030545;28;20479;-85
2021/07/20 09:14:58;;;;;;;8.10;3.80;;;29.20;94.90;;;;;;5017559;28;20060;-85
2021/07/20 09:17:31;;;;;;;5.57;3.53;;;29.30;94.90;;;;;;5018295;28;20048;-85
2021/07/20 09:20:05;;;;;;;6.75;3.60;;;29.40;94.50;;;;;;5014527;28;20512;-85
2021/07/20 09:22:47;;;;;;;7.53;3.85;;;29.40;93.70;;;;;;5011526;28;20061;-85
2021/07/20 09:25:33;;;;;;;5.72;3.50;;;29.50;93.30;;;;;;5004025;28;20045;-85
2021/07/20 09:28:03;;;;;;;5.80;3.25;;;29.50;93.10;;;;;;5011839;28;20063;-85
2021/07/20 09:30:33;;;;;;;6.15;3.63;;;29.60;92.80;;;;;;5011031;28;20060;-85
2021/07/20 09:33:20;;;;;;;4.85;3.10;;;29.70;92.50;;;;;;5031004;28;20049;-85
2021/07/20 09:36:01;;;;;;;6.50;3.72;;;29.80;91.90;;;;;;5010358;28;20464;-85
2021/07/20 09:38:52;;;;;;;4.50;3.65;;;29.80;91.90;;;;;;5029133;28;20037;-86
2021/07/20 09:41:33;;;;;;;6.60;3.20;;;29.80;91.70;;;;;;5030412;28;20049;-85
2021/07/20 09:44:38;;;;;;;11.10;3.70;;;29.80;91.90;;;;;;5019579;28;20506;-85
2021/07/20 09:47:27;;;;;;;5.47;3.55;;;29.90;91.90;;;;;;5020851;28;20045;-85
2021/07/20 09:50:11;;;;;;;6.13;3.03;;;30.00;91.90;;;;;;5033920;28;20048;-85
2021/07/20 09:52:38;;;;;;;5.15;3.70;;;30.10;91.00;;;;;;5010451;28;20071;-85
2021/07/20 09:55:34;;;;;;;4.50;3.25;;;30.00;90.90;;;;;;5029029;28;20481;-85
2021/07/20 09:58:48;;;;;;;4.13;3.60;;;30.00;90.70;;;;;;5018444;28;20038;-85
2021/07/20 10:01:36;;;;;;;5.93;3.45;;;30.00;90.10;;;;;;4926335;29;20044;-85
2021/07/20 10:04:10;;;;;;;7.35;3.90;;;30.00;90.30;;;;;;4932147;29;20099;-86
2021/07/20 10:06:43;;;;;;;6.15;3.75;;;30.10;90.70;;;;;;4930268;29;20067;-85
2021/07/20 10:09:23;;;;;;;4.80;3.45;;;30.20;90.70;;;;;;4921812;29;20051;-86
2021/07/20 10:12:08;;;;;;;6.97;3.90;;;30.20;90.10;;;;;;4915421;29;20482;-85
2021/07/20 10:15:07;;;;;;;7.65;3.67;;;30.30;90.00;;;;;;4930079;29;20558;-85
2021/07/20 10:17:57;;;;;;;5.63;3.75;;;30.30;89.60;;;;;;4918971;29;20087;-85
2021/07/20 10:20:49;;;;;;;4.80;3.45;;;30.40;90.00;;;;;;4911699;29;20055;-85
2021/07/20 10:23:21;;;;;;;6.78;3.67;;;30.50;89.90;;;;;;4923754;29;20067;-85
2021/07/20 10:26:14;;;;;;;6.30;3.22;;;30.60;89.20;;;;;;4927495;29;20055;-86
2021/07/20 10:29:16;;;;;;;8.13;3.60;;;30.70;88.80;;;;;;4929037;29;20051;-85
2021/07/20 10:31:56;;;;;;;5.90;3.78;;;30.80;87.20;;;;;;4900962;29;20066;-85
2021/07/20 10:34:28;;;;;;;4.13;3.33;;;30.80;87.50;;;;;;4916159;29;20044;-86
2021/07/20 10:37:01;;;;;;;8.48;3.47;;;30.80;87.40;;;;;;4915504;29;20522;-85
2021/07/20 10:39:45;;;;;;;4.80;3.63;;;30.90;87.20;;;;;;4956170;28;20043;-85
2021/07/20 10:42:23;;;;;;;8.90;3.75;;;30.90;86.00;;;;;;4950569;28;20042;-85
2021/07/20 10:45:06;;;;;;;3.97;3.33;;;30.90;86.30;;;;;;4954535;28;20513;-85
2021/07/20 10:48:01;;;;;;;5.50;3.67;;;30.90;85.90;;;;;;4949863;28;20437;-85
2021/07/20 10:50:58;;;;;;;12.63;4.18;;;30.90;85.80;;;;;;4957787;28;20493;-85
2021/07/20 10:53:43;;;;;;;6.23;3.47;;;30.90;86.30;;;;;;4922915;29;20066;-86
2021/07/20 10:56:30;;;;;;;4.03;3.30;;;31.00;86.50;;;;;;4912955;29;20295;-85
2021/07/20 10:59:10;;;;;;;4.07;3.30;;;31.00;86.50;;;;;;4945929;28;20091;-85
2021/07/20 11:01:50;;;;;;;6.57;3.75;;;31.00;86.10;;;;;;4934021;29;20401;-85
2021/07/20 11:04:46;;;;;;;4.47;3.33;;;31.10;86.30;;;;;;4938834;29;20044;-85
2021/07/20 11:07:19;;;;;;;5.85;3.78;;;31.10;85.50;;;;;;4944936;28;20071;-85
2021/07/20 11:09:49;;;;;;;4.57;3.42;;;31.10;85.60;;;;;;4943223;29;20074;-85
2021/07/20 11:12:16;;;;;;;7.18;3.63;;;31.10;85.70;;;;;;4931021;29;20052;-85
2021/07/20 11:14:52;;;;;;;7.63;3.65;;;31.10;85.20;;;;;;4916724;29;20052;-85
2021/07/20 11:17:21;;;;;;;6.55;4.05;;;31.10;84.90;;;;;;4916982;29;20058;-85
2021/07/20 11:19:51;;;;;;;4.75;3.40;;;31.00;85.30;;;;;;4932906;29;20056;-85
2021/07/20 11:22:19;;;;;;;7.40;4.13;;;31.00;85.50;;;;;;4931893;29;20051;-85
2021/07/20 11:24:48;;;;;;;7.10;3.90;;;31.10;85.50;;;;;;4916783;29;20056;-85
2021/07/20 11:27:19;;;;;;;5.72;3.80;;;31.00;85.00;;;;;;4932382;29;20478;-85
2021/07/20 11:29:48;;;;;;;6.60;3.92;;;30.90;85.00;;;;;;4955139;28;20054;-85
2021/07/20 11:32:22;;;;;;;8.27;3.85;;;30.90;84.70;;;;;;4995237;28;20054;-85
2021/07/20 11:35:02;;;;;;;8.18;4.05;;;30.90;84.70;;;;;;4993370;28;20116;-85
2021/07/20 11:37:35;;;;;;;4.68;4.00;;;30.90;85.20;;;;;;4996855;28;20391;-85
2021/07/20 11:40:07;;;;;;;7.03;4.30;;;31.00;85.30;;;;;;4998338;28;20104;-85
2021/07/20 11:42:49;;;;;;;6.00;3.50;;;31.10;85.90;;;;;;4996414;28;20042;-85
2021/07/20 11:45:18;;;;;;;6.50;3.53;;;31.10;85.20;;;;;;4996584;28;20058;-85
2021/07/20 11:47:58;;;;;;;8.60;3.78;;;31.10;84.60;;;;;;4999796;28;20398;-85
2021/07/20 11:50:48;;;;;;;6.70;3.50;;;31.10;83.90;;;;;;4991622;28;21677;-85
2021/07/20 11:53:29;;;;;;;8.00;3.55;;;31.20;84.30;;;;;;5010658;28;20054;-86
2021/07/20 11:56:24;;;;;;;5.82;3.95;;;31.20;85.00;;;;;;5016275;28;20050;-85
2021/07/20 11:59:19;;;;;;;3.75;3.42;;;31.30;83.90;;;;;;5005237;28;20049;-85
2021/07/20 12:02:22;;;;;;;5.55;3.35;;;31.30;84.70;;;;;;5014762;28;20109;-86
2021/07/20 12:05:20;;;;;;;7.63;3.80;;;31.30;85.10;;;;;;4917180;29;20119;-85
2021/07/20 12:07:54;;;;;;;9.80;3.60;;;31.40;84.50;;;;;;4913523;29;20119;-85
2021/07/20 12:10:45;;;;;;;5.75;3.35;;;31.40;84.10;;;;;;4926403;29;20063;-85
2021/07/20 12:13:16;;;;;;;7.45;3.75;;;31.40;83.30;;;;;;4933126;29;20048;-86
2021/07/20 12:15:45;;;;;;;5.05;3.80;;;31.30;83.10;;;;;;4933463;29;20397;-86
2021/07/20 12:18:12;;;;;;;4.25;3.63;;;31.30;83.40;;;;;;4921122;29;20512;-85
2021/07/20 12:20:43;;;;;;;5.63;3.85;;;31.40;83.20;;;;;;4935231;28;20074;-85
2021/07/20 12:23:11;;;;;;;7.57;4.25;;;31.40;83.20;;;;;;4952197;28;20051;-86
2021/07/20 12:25:38;;;;;;;6.37;3.80;;;31.40;83.30;;;;;;4936976;29;20120;-85
2021/07/20 12:28:07;;;;;;;8.93;4.10;;;31.40;82.70;;;;;;4921968;29;20377;-85
2021/07/20 12:30:34;;;;;;;5.90;3.63;;;31.40;82.20;;;;;;4933746;29;20402;-86
2021/07/20 12:33:13;;;;;;;6.35;3.95;;;31.40;81.70;;;;;;4931803;28;20043;-85
2021/07/20 12:35:44;;;;;;;5.50;4.00;;;31.40;81.90;;;;;;4927352;29;20359;-85
2021/07/20 12:38:12;;;;;;;4.50;3.53;;;31.40;81.90;;;;;;4941295;28;20485;-86
2021/07/20 12:40:40;;;;;;;6.95;4.30;;;31.50;82.70;;;;;;4938505;28;20050;-85
2021/07/20 12:43:09;;;;;;;6.20;4.07;;;31.60;83.10;;;;;;5013696;28;20050;-86
2021/07/20 12:45:40;;;;;;;5.43;3.78;;;31.60;83.20;;;;;;5035667;28;20046;-86
2021/07/20 12:48:28;;;;;;;5.70;4.00;;;31.60;83.30;;;;;;5014236;28;20045;-85
2021/07/20 12:50:56;;;;;;;8.85;3.78;;;31.60;82.60;;;;;;5016313;28;20411;-85
2021/07/20 12:53:25;;;;;;;6.32;3.47;;;31.60;82.60;;;;;;5016867;28;20041;-85
2021/07/20 12:55:53;;;;;;;5.72;3.60;;;31.50;81.60;;;;;;5036347;28;20045;-85
2021/07/20 12:58:21;;;;;;;9.90;3.70;;;31.50;81.50;;;;;;5013507;28;20094;-85
2021/07/20 13:00:49;;;;;;;7.88;3.67;;;31.50;80.60;;;;;;5032398;28;20059;-85
2021/07/20 13:03:17;;;;;;;4.95;3.90;;;31.50;80.50;;;;;;5023410;28;20068;-85
2021/07/20 13:05:47;;;;;;;4.18;3.70;;;31.50;81.20;;;;;;5022979;28;20391;-85
2021/07/20 13:08:18;;;;;;;4.68;3.70;;;31.50;81.40;;;;;;5023726;28;20446;-85
2021/07/20 13:10:52;;;;;;;8.13;3.65;;;31.50;81.00;;;;;;5024482;28;20132;-86
2021/07/20 13:13:21;;;;;;;4.20;3.50;;;31.50;81.10;;;;;;5030402;28;20041;-85
2021/07/20 13:15:50;;;;;;;4.85;3.38;;;31.50;80.70;;;;;;5031465;28;20053;-86
2021/07/20 13:18:22;;;;;;;4.32;3.30;;;31.50;80.50;;;;;;5020406;28;20044;-86
2021/07/20 13:20:53;;;;;;;4.47;3.67;;;31.60;80.50;;;;;;5021314;28;20057;-86
2021/07/20 13:23:20;;;;;;;5.40;3.72;;;31.70;80.60;;;;;;5018068;28;20038;-86
2021/07/20 13:25:49;;;;;;;4.75;3.42;;;31.70;80.10;;;;;;5017412;28;20052;-85
2021/07/20 13:28:19;;;;;;;3.95;3.30;;;31.70;80.30;;;;;;5012635;28;20046;-86
2021/07/20 13:30:59;;;;;;;7.30;4.18;;;31.70;80.10;;;;;;5007444;28;20053;-86
2021/07/20 13:33:26;;;;;;;6.05;3.35;;;31.70;79.00;;;;;;5017786;28;20041;-86
2021/07/20 13:35:57;;;;;;;5.38;3.45;;;31.70;78.90;;;;;;5018278;28;20053;-86
2021/07/20 13:38:30;;;;;;;5.32;3.30;;;31.70;78.30;;;;;;5012849;28;20057;-85
2021/07/20 13:40:59;;;;;;;6.05;3.90;;;31.70;78.60;;;;;;5031903;28;20049;-85
2021/07/20 13:43:29;;;;;;;9.00;4.10;;;31.70;78.90;;;;;;5012797;28;20045;-85
2021/07/20 13:45:58;;;;;;;6.55;3.67;;;31.70;79.20;;;;;;5015573;28;20050;-85
2021/07/20 13:48:28;;;;;;;5.40;3.70;;;31.80;79.90;;;;;;5014042;28;20083;-86
2021/07/20 13:50:59;;;;;;;8.60;4.00;;;31.80;80.40;;;;;;5032621;28;20057;-85
2021/07/20 13:53:36;;;;;;;6.43;3.70;;;31.80;80.50;;;;;;5008482;28;20109;-85
2021/07/20 13:56:35;;;;;;;3.63;3.33;;;31.80;80.40;;;;;;5014748;28;20045;-86
2021/07/20 13:59:10;;;;;;;7.13;3.95;;;31.90;80.20;;;;;;5014207;28;20045;-85
2021/07/20 14:01:39;;;;;;;6.45;3.78;;;32.00;80.80;;;;;;5011711;28;20467;-86
2021/07/20 14:04:07;;;;;;;5.70;4.22;;;32.10;80.10;;;;;;5032346;28;20038;-86
2021/07/20 14:06:36;;;;;;;7.60;3.90;;;32.10;80.20;;;;;;5027829;28;20368;-86
2021/07/20 14:09:08;;;;;;;8.52;3.90;;;32.10;80.50;;;;;;5014978;28;20045;-85
2021/07/20 14:11:36;;;;;;;8.30;3.97;;;32.10;80.00;;;;;;5024012;28;20049;-85
2021/07/20 14:14:05;;;;;;;5.30;3.90;;;32.00;79.80;;;;;;5005511;28;20084;-86